Wetterdaten: Woche 06.07.09 - 12.07.09 (KW28)
Datum Zeit Temp. Innen Temp. Aussen UV X Diff Temp. Feuchte Inne Feuchte Auss Sonnenschein Luftdruck Regen ab 0,1 Wind Sonnenschein Windben
06.07.2009 00:00 25,3 C 20,9 C 0,0 UV-I 0,0 C 59 % 75 % 0 % 1011,1 hPa 0,0 l/m 2,4 km/h (1 Bft) 0,00 h 4,3 km/h (1 Bft)
06.07.2009 01:00 25,1 C 19,3 C 0,0 UV-I 0,0 C 60 % 80 % 0 % 1010,9 hPa 1,7 l/m 1,7 km/h (1 Bft) 0,00 h 2,2 km/h (1 Bft)
06.07.2009 02:00 24,8 C 18,0 C 0,0 UV-I 0,0 C 61 % 85 % 0 % 1010,5 hPa 0,0 l/m 0,0 km/h (0 Bft) 0,00 h 0,1 km/h (0 Bft)
06.07.2009 03:00 24,5 C 17,6 C 0,0 UV-I 0,0 C 62 % 88 % 0 % 1010,7 hPa 0,0 l/m 0,3 km/h (0 Bft) 0,00 h 0,7 km/h (0 Bft)
06.07.2009 04:00 24,3 C 17,3 C 0,0 UV-I 0,0 C 63 % 90 % 0 % 1010,1 hPa 0,0 l/m 0,1 km/h (0 Bft) 0,00 h 0,2 km/h (0 Bft)
06.07.2009 05:00 24,2 C 17,1 C 0,0 UV-I 0,0 C 63 % 90 % 0 % 1010,2 hPa 0,0 l/m 0,0 km/h (0 Bft) 0,00 h 0,0 km/h (0 Bft)
06.07.2009 06:00 24,0 C 16,9 C 0,6 UV-I 0,0 C 63 % 91 % 0 % 1009,9 hPa 0,0 l/m 0,2 km/h (0 Bft) 0,00 h 0,5 km/h (0 Bft)
06.07.2009 07:00 24,0 C 17,3 C 1,7 UV-I 0,0 C 64 % 92 % 0 % 1010,1 hPa 0,0 l/m 0,4 km/h (0 Bft) 0,00 h 0,8 km/h (0 Bft)
06.07.2009 08:00 24,0 C 18,1 C 2,9 UV-I 0,1 C 63 % 88 % 2 % 1010,1 hPa 0,0 l/m 1,4 km/h (1 Bft) 0,00 h 2,5 km/h (1 Bft)
06.07.2009 09:00 24,0 C 18,9 C 3,4 UV-I 0,9 C 60 % 77 % 23 % 1010,3 hPa 0,0 l/m 1,8 km/h (1 Bft) 0,13 h 3,4 km/h (1 Bft)
06.07.2009 10:00 24,0 C 20,6 C 5,8 UV-I 5,8 C 58 % 69 % 100 % 1010,1 hPa 0,0 l/m 2,2 km/h (1 Bft) 0,87 h 3,5 km/h (1 Bft)
06.07.2009 11:00 24,2 C 22,6 C 6,3 UV-I 3,4 C 57 % 63 % 83 % 1010,0 hPa 0,0 l/m 1,5 km/h (1 Bft) 0,60 h 2,7 km/h (1 Bft)
06.07.2009 12:00 24,6 C 23,6 C 6,1 UV-I 3,3 C 57 % 59 % 89 % 1009,7 hPa 0,0 l/m 2,9 km/h (1 Bft) 0,67 h 4,0 km/h (1 Bft)
06.07.2009 13:00 24,9 C 25,6 C 6,4 UV-I 3,2 C 55 % 50 % 87 % 1008,9 hPa 0,0 l/m 4,4 km/h (1 Bft) 0,57 h 8,6 km/h (2 Bft)
06.07.2009 14:00 25,2 C 23,2 C 4,1 UV-I 0,1 C 55 % 63 % 4 % 1009,0 hPa 0,9 l/m 3,6 km/h (1 Bft) 0,00 h 5,4 km/h (1 Bft)
06.07.2009 15:00 25,3 C 21,7 C 5,1 UV-I 2,0 C 56 % 66 % 48 % 1009,4 hPa 0,0 l/m 4,4 km/h (1 Bft) 0,37 h 6,5 km/h (2 Bft)
06.07.2009 16:00 26,2 C 23,4 C 6,1 UV-I 3,6 C 53 % 58 % 96 % 1008,6 hPa 0,0 l/m 4,0 km/h (1 Bft) 0,97 h 6,0 km/h (2 Bft)
06.07.2009 17:00 26,8 C 24,3 C 2,9 UV-I 1,0 C 50 % 55 % 28 % 1008,2 hPa 0,0 l/m 4,1 km/h (1 Bft) 0,03 h 5,8 km/h (2 Bft)
06.07.2009 18:00 26,6 C 23,7 C 1,6 UV-I 0,3 C 50 % 57 % 9 % 1007,7 hPa 0,0 l/m 2,4 km/h (1 Bft) 0,00 h 4,1 km/h (1 Bft)
06.07.2009 19:00 26,1 C 22,3 C 1,1 UV-I 0,0 C 51 % 58 % 0 % 1007,7 hPa 0,0 l/m 2,6 km/h (1 Bft) 0,00 h 3,2 km/h (1 Bft)
06.07.2009 20:00 25,7 C 21,1 C 0,6 UV-I 0,0 C 51 % 61 % 0 % 1007,4 hPa 0,0 l/m 1,2 km/h (1 Bft) 0,00 h 2,1 km/h (1 Bft)
06.07.2009 21:00 25,1 C 19,5 C 0,0 UV-I 0,0 C 52 % 65 % 0 % 1007,7 hPa 0,0 l/m 1,9 km/h (1 Bft) 0,00 h 3,2 km/h (1 Bft)
06.07.2009 22:00 24,5 C 18,4 C 0,0 UV-I 0,0 C 52 % 68 % 0 % 1007,9 hPa 0,0 l/m 1,2 km/h (1 Bft) 0,00 h 2,0 km/h (1 Bft)
06.07.2009 23:00 24,0 C 17,8 C 0,0 UV-I 0,0 C 50 % 66 % 0 % 1008,1 hPa 0,0 l/m 1,4 km/h (1 Bft) 0,00 h 3,0 km/h (1 Bft)
07.07.2009 00:00 23,6 C 17,0 C 0,0 UV-I 0,0 C 51 % 69 % 0 % 1007,9 hPa 0,0 l/m 1,2 km/h (1 Bft) 0,00 h 2,4 km/h (1 Bft)
07.07.2009 01:00 23,3 C 16,6 C 0,0 UV-I 0,0 C 52 % 74 % 0 % 1007,6 hPa 0,0 l/m 2,3 km/h (1 Bft) 0,00 h 4,1 km/h (1 Bft)
07.07.2009 02:00 23,1 C 16,4 C 0,0 UV-I 0,0 C 54 % 77 % 0 % 1007,2 hPa 0,0 l/m 1,3 km/h (1 Bft) 0,00 h 2,5 km/h (1 Bft)
07.07.2009 03:00 22,9 C 16,3 C 0,0 UV-I 0,0 C 55 % 78 % 0 % 1006,9 hPa 0,0 l/m 2,2 km/h (1 Bft) 0,00 h 4,6 km/h (1 Bft)
07.07.2009 04:00 22,7 C 16,0 C 0,0 UV-I 0,0 C 55 % 80 % 0 % 1006,8 hPa 0,0 l/m 1,6 km/h (1 Bft) 0,00 h 2,5 km/h (1 Bft)
07.07.2009 05:00 22,4 C 16,0 C 0,0 UV-I 0,0 C 56 % 80 % 0 % 1006,5 hPa 0,0 l/m 2,5 km/h (1 Bft) 0,00 h 4,8 km/h (1 Bft)
07.07.2009 06:00 22,3 C 16,0 C 0,1 UV-I 0,0 C 56 % 79 % 0 % 1006,3 hPa 0,0 l/m 2,7 km/h (1 Bft) 0,00 h 3,7 km/h (1 Bft)
07.07.2009 07:00 22,2 C 16,2 C 0,8 UV-I 0,0 C 56 % 78 % 0 % 1006,3 hPa 0,0 l/m 3,7 km/h (1 Bft) 0,00 h 6,2 km/h (2 Bft)
07.07.2009 08:00 22,2 C 16,8 C 1,4 UV-I 0,4 C 56 % 76 % 12 % 1006,0 hPa 0,0 l/m 5,1 km/h (1 Bft) 0,00 h 9,1 km/h (2 Bft)
07.07.2009 09:00 22,3 C 17,4 C 2,2 UV-I 1,0 C 55 % 73 % 27 % 1005,9 hPa 0,0 l/m 5,5 km/h (1 Bft) 0,00 h 9,3 km/h (2 Bft)
07.07.2009 10:00 22,5 C 18,8 C 4,8 UV-I 3,0 C 55 % 68 % 81 % 1005,9 hPa 0,0 l/m 7,2 km/h (2 Bft) 0,40 h 9,0 km/h (2 Bft)
07.07.2009 11:00 22,7 C 19,8 C 6,8 UV-I 2,5 C 53 % 61 % 71 % 1006,0 hPa 0,0 l/m 6,7 km/h (2 Bft) 0,37 h 10,2 km/h (2 Bft)
07.07.2009 12:00 22,8 C 21,4 C 7,6 UV-I 3,4 C 52 % 55 % 95 % 1005,9 hPa 0,0 l/m 9,3 km/h (2 Bft) 0,67 h 13,1 km/h (3 Bft)
07.07.2009 13:00 23,2 C 22,5 C 6,6 UV-I 2,7 C 49 % 47 % 77 % 1005,5 hPa 0,0 l/m 8,4 km/h (2 Bft) 0,27 h 11,6 km/h (2 Bft)
07.07.2009 14:00 23,8 C 23,2 C 6,3 UV-I 2,5 C 47 % 46 % 72 % 1005,4 hPa 0,0 l/m 7,8 km/h (2 Bft) 0,40 h 10,0 km/h (2 Bft)
07.07.2009 15:00 24,6 C 23,2 C 5,7 UV-I 2,1 C 45 % 45 % 61 % 1005,6 hPa 0,0 l/m 7,8 km/h (2 Bft) 0,13 h 11,6 km/h (2 Bft)
07.07.2009 16:00 25,1 C 22,2 C 3,1 UV-I 0,4 C 44 % 49 % 11 % 1005,9 hPa 0,0 l/m 6,9 km/h (2 Bft) 0,00 h 9,8 km/h (2 Bft)
07.07.2009 17:00 24,7 C 19,1 C 1,3 UV-I 0,0 C 47 % 64 % 0 % 1006,2 hPa 4,1 l/m 3,9 km/h (1 Bft) 0,00 h 6,1 km/h (2 Bft)
07.07.2009 18:00 24,4 C 17,6 C 2,6 UV-I 2,1 C 52 % 76 % 60 % 1006,1 hPa 0,0 l/m 2,0 km/h (1 Bft) 0,30 h 3,3 km/h (1 Bft)
07.07.2009 19:00 24,1 C 17,8 C 1,2 UV-I 0,4 C 52 % 74 % 12 % 1005,9 hPa 0,0 l/m 2,9 km/h (1 Bft) 0,00 h 4,8 km/h (1 Bft)
07.07.2009 20:00 23,4 C 16,6 C 0,3 UV-I 0,0 C 52 % 74 % 0 % 1005,5 hPa 0,0 l/m 2,4 km/h (1 Bft) 0,00 h 2,3 km/h (1 Bft)
07.07.2009 21:00 23,0 C 16,0 C 0,2 UV-I 0,0 C 52 % 77 % 0 % 1005,5 hPa 0,0 l/m 1,1 km/h (1 Bft) 0,00 h 2,9 km/h (1 Bft)
07.07.2009 22:00 22,5 C 15,6 C 0,0 UV-I 0,0 C 55 % 82 % 0 % 1005,2 hPa 0,0 l/m 1,9 km/h (1 Bft) 0,00 h 2,8 km/h (1 Bft)
07.07.2009 23:00 22,2 C 15,8 C 0,0 UV-I 0,0 C 56 % 81 % 0 % 1005,6 hPa 0,0 l/m 2,5 km/h (1 Bft) 0,00 h 3,8 km/h (1 Bft)
08.07.2009 00:00 21,9 C 15,6 C 0,0 UV-I 0,0 C 56 % 80 % 0 % 1005,6 hPa 0,0 l/m 2,6 km/h (1 Bft) 0,00 h 3,9 km/h (1 Bft)
08.07.2009 01:00 21,6 C 15,3 C 0,0 UV-I 0,0 C 57 % 82 % 0 % 1005,4 hPa 0,0 l/m 3,1 km/h (1 Bft) 0,00 h 5,8 km/h (1 Bft)
08.07.2009 02:00 21,5 C 15,2 C 0,0 UV-I 0,0 C 58 % 84 % 0 % 1005,1 hPa 0,0 l/m 2,7 km/h (1 Bft) 0,00 h 5,4 km/h (1 Bft)
08.07.2009 03:00 21,3 C 15,3 C 0,0 UV-I 0,0 C 59 % 86 % 0 % 1004,9 hPa 0,0 l/m 2,2 km/h (1 Bft) 0,00 h 3,2 km/h (1 Bft)
08.07.2009 04:00 21,2 C 15,2 C 0,0 UV-I 0,0 C 60 % 87 % 0 % 1004,8 hPa 0,0 l/m 1,9 km/h (1 Bft) 0,00 h 3,8 km/h (1 Bft)
08.07.2009 05:00 21,3 C 15,2 C 0,0 UV-I 0,0 C 61 % 88 % 0 % 1004,7 hPa 0,0 l/m 1,8 km/h (1 Bft) 0,00 h 3,2 km/h (1 Bft)
08.07.2009 06:00 21,2 C 15,2 C 0,1 UV-I 0,0 C 62 % 90 % 0 % 1004,8 hPa 0,1 l/m 2,4 km/h (1 Bft) 0,00 h 4,4 km/h (1 Bft)
08.07.2009 07:00 21,2 C 15,3 C 0,9 UV-I 0,0 C 62 % 90 % 0 % 1005,2 hPa 0,0 l/m 3,6 km/h (1 Bft) 0,00 h 6,1 km/h (2 Bft)
08.07.2009 08:00 21,3 C 15,9 C 0,9 UV-I 0,1 C 62 % 87 % 3 % 1005,6 hPa 0,0 l/m 4,2 km/h (1 Bft) 0,00 h 6,0 km/h (2 Bft)
08.07.2009 09:00 21,5 C 16,4 C 1,2 UV-I 0,5 C 62 % 84 % 14 % 1006,2 hPa 0,0 l/m 5,3 km/h (1 Bft) 0,00 h 8,5 km/h (2 Bft)
08.07.2009 10:00 21,7 C 17,7 C 4,0 UV-I 2,6 C 60 % 75 % 69 % 1006,4 hPa 0,0 l/m 7,1 km/h (2 Bft) 0,43 h 10,5 km/h (2 Bft)
08.07.2009 11:00 22,0 C 19,4 C 7,8 UV-I 3,6 C 58 % 68 % 93 % 1006,7 hPa 0,0 l/m 7,6 km/h (2 Bft) 0,80 h 13,3 km/h (3 Bft)
08.07.2009 12:00 22,2 C 19,9 C 4,7 UV-I 1,4 C 57 % 67 % 40 % 1007,4 hPa 0,0 l/m 8,4 km/h (2 Bft) 0,10 h 10,9 km/h (2 Bft)
08.07.2009 13:00 22,4 C 18,0 C 2,6 UV-I 0,0 C 59 % 78 % 1 % 1008,4 hPa 0,5 l/m 6,5 km/h (2 Bft) 0,00 h 8,5 km/h (2 Bft)
08.07.2009 14:00 22,4 C 17,9 C 4,8 UV-I 1,5 C 60 % 79 % 43 % 1008,7 hPa 0,1 l/m 7,6 km/h (2 Bft) 0,00 h 10,9 km/h (2 Bft)
08.07.2009 15:00 22,7 C 19,3 C 5,8 UV-I 2,8 C 58 % 71 % 74 % 1008,9 hPa 0,0 l/m 8,4 km/h (2 Bft) 0,37 h 14,5 km/h (3 Bft)
08.07.2009 16:00 23,4 C 20,4 C 4,6 UV-I 2,0 C 55 % 65 % 56 % 1009,2 hPa 0,0 l/m 8,1 km/h (2 Bft) 0,07 h 10,2 km/h (2 Bft)
08.07.2009 17:00 23,9 C 20,6 C 3,4 UV-I 2,4 C 54 % 64 % 67 % 1009,3 hPa 0,0 l/m 6,7 km/h (2 Bft) 0,40 h 9,4 km/h (2 Bft)
08.07.2009 18:00 24,2 C 20,3 C 2,5 UV-I 1,2 C 53 % 63 % 34 % 1010,2 hPa 0,0 l/m 6,2 km/h (2 Bft) 0,00 h 9,8 km/h (2 Bft)
08.07.2009 19:00 23,9 C 19,2 C 0,8 UV-I 0,0 C 50 % 62 % 0 % 1010,7 hPa 0,0 l/m 5,0 km/h (1 Bft) 0,00 h 6,7 km/h (2 Bft)
08.07.2009 20:00 23,4 C 18,3 C 0,4 UV-I 0,0 C 51 % 65 % 0 % 1011,3 hPa 0,0 l/m 3,7 km/h (1 Bft) 0,00 h 5,3 km/h (1 Bft)
08.07.2009 21:00 23,0 C 17,6 C 0,0 UV-I 0,0 C 54 % 69 % 0 % 1011,5 hPa 0,0 l/m 1,4 km/h (1 Bft) 0,00 h 2,3 km/h (1 Bft)
08.07.2009 22:00 22,6 C 16,8 C 0,0 UV-I 0,0 C 55 % 73 % 0 % 1012,2 hPa 0,0 l/m 2,0 km/h (1 Bft) 0,00 h 3,1 km/h (1 Bft)
08.07.2009 23:00 22,0 C 15,7 C 0,0 UV-I 0,0 C 57 % 81 % 0 % 1012,7 hPa 0,0 l/m 3,0 km/h (1 Bft) 0,00 h 5,1 km/h (1 Bft)
09.07.2009 00:00 21,6 C 14,8 C 0,0 UV-I 0,0 C 58 % 84 % 0 % 1013,0 hPa 0,0 l/m 2,0 km/h (1 Bft) 0,00 h 3,8 km/h (1 Bft)
09.07.2009 01:00 21,3 C 14,2 C 0,0 UV-I 0,0 C 58 % 84 % 0 % 1013,0 hPa 0,0 l/m 2,2 km/h (1 Bft) 0,00 h 3,9 km/h (1 Bft)
09.07.2009 02:00 21,1 C 13,4 C 0,0 UV-I 0,0 C 58 % 86 % 0 % 1012,8 hPa 0,0 l/m 1,6 km/h (1 Bft) 0,00 h 2,7 km/h (1 Bft)
09.07.2009 03:00 20,8 C 12,9 C 0,0 UV-I 0,0 C 58 % 88 % 0 % 1012,9 hPa 0,0 l/m 1,9 km/h (1 Bft) 0,00 h 3,0 km/h (1 Bft)
09.07.2009 04:00 20,6 C 12,4 C 0,0 UV-I 0,0 C 57 % 88 % 0 % 1012,7 hPa 0,0 l/m 0,8 km/h (0 Bft) 0,00 h 1,5 km/h (1 Bft)
09.07.2009 05:00 20,3 C 11,9 C 0,0 UV-I 0,0 C 57 % 88 % 0 % 1012,8 hPa 0,0 l/m 1,3 km/h (1 Bft) 0,00 h 2,1 km/h (1 Bft)
09.07.2009 06:00 20,1 C 11,6 C 0,3 UV-I 0,0 C 57 % 89 % 0 % 1013,0 hPa 0,0 l/m 0,5 km/h (0 Bft) 0,00 h 1,1 km/h (0 Bft)
09.07.2009 07:00 20,0 C 12,0 C 0,9 UV-I 0,0 C 58 % 90 % 0 % 1013,3 hPa 0,0 l/m 1,9 km/h (1 Bft) 0,00 h 3,5 km/h (1 Bft)
09.07.2009 08:00 20,0 C 13,3 C 1,5 UV-I 0,5 C 58 % 86 % 15 % 1013,6 hPa 0,0 l/m 3,1 km/h (1 Bft) 0,00 h 5,0 km/h (1 Bft)
09.07.2009 09:00 20,3 C 15,1 C 2,4 UV-I 1,6 C 56 % 75 % 46 % 1013,8 hPa 0,0 l/m 5,0 km/h (1 Bft) 0,07 h 7,8 km/h (2 Bft)
09.07.2009 10:00 20,6 C 16,9 C 4,4 UV-I 4,6 C 55 % 67 % 100 % 1013,9 hPa 0,0 l/m 5,1 km/h (1 Bft) 0,97 h 8,3 km/h (2 Bft)
09.07.2009 11:00 21,0 C 18,5 C 5,7 UV-I 3,2 C 53 % 58 % 82 % 1014,0 hPa 0,0 l/m 4,3 km/h (1 Bft) 0,53 h 6,4 km/h (2 Bft)
09.07.2009 12:00 21,3 C 18,6 C 2,9 UV-I 1,0 C 52 % 58 % 30 % 1014,0 hPa 0,0 l/m 4,8 km/h (1 Bft) 0,00 h 7,1 km/h (2 Bft)
09.07.2009 13:00 21,5 C 18,1 C 2,0 UV-I 0,4 C 51 % 59 % 10 % 1014,0 hPa 0,0 l/m 3,8 km/h (1 Bft) 0,00 h 6,3 km/h (2 Bft)
09.07.2009 14:00 21,6 C 16,8 C 2,8 UV-I 0,7 C 52 % 69 % 20 % 1014,2 hPa 0,0 l/m 3,2 km/h (1 Bft) 0,13 h 5,2 km/h (1 Bft)
09.07.2009 15:00 22,2 C 18,7 C 4,6 UV-I 3,6 C 52 % 60 % 86 % 1014,3 hPa 0,0 l/m 2,2 km/h (1 Bft) 0,73 h 2,7 km/h (1 Bft)
09.07.2009 16:00 22,9 C 18,2 C 0,6 UV-I 0,1 C 50 % 63 % 4 % 1014,2 hPa 1,2 l/m 3,0 km/h (1 Bft) 0,00 h 4,1 km/h (1 Bft)
09.07.2009 17:00 22,3 C 15,0 C 0,3 UV-I 0,0 C 52 % 78 % 0 % 1014,1 hPa 0,6 l/m 1,8 km/h (1 Bft) 0,00 h 2,9 km/h (1 Bft)
09.07.2009 18:00 21,4 C 13,8 C 0,4 UV-I 0,0 C 55 % 84 % 0 % 1013,6 hPa 0,1 l/m 1,8 km/h (1 Bft) 0,00 h 2,6 km/h (1 Bft)
09.07.2009 19:00 21,0 C 14,3 C 1,0 UV-I 0,2 C 58 % 86 % 5 % 1013,2 hPa 0,0 l/m 1,5 km/h (1 Bft) 0,00 h 2,6 km/h (1 Bft)
09.07.2009 20:00 20,9 C 14,4 C 0,1 UV-I 0,0 C 59 % 86 % 0 % 1013,2 hPa 0,6 l/m 0,8 km/h (0 Bft) 0,00 h 1,8 km/h (1 Bft)
09.07.2009 21:00 20,7 C 14,2 C 0,0 UV-I 0,0 C 61 % 88 % 0 % 1013,3 hPa 0,0 l/m 0,2 km/h (0 Bft) 0,00 h 0,5 km/h (0 Bft)
09.07.2009 22:00 20,6 C 14,0 C 0,0 UV-I 0,0 C 61 % 89 % 0 % 1013,7 hPa 0,0 l/m 0,5 km/h (0 Bft) 0,00 h 0,8 km/h (0 Bft)
09.07.2009 23:00 20,3 C 13,6 C 0,0 UV-I 0,0 C 61 % 89 % 0 % 1013,4 hPa 0,0 l/m 0,4 km/h (0 Bft) 0,00 h 1,1 km/h (1 Bft)
10.07.2009 00:00 20,1 C 13,1 C 0,0 UV-I 0,0 C 61 % 90 % 0 % 1013,2 hPa 0,0 l/m 1,0 km/h (0 Bft) 0,00 h 3,0 km/h (1 Bft)
10.07.2009 01:00 19,8 C 12,9 C 0,0 UV-I 0,0 C 61 % 90 % 0 % 1012,8 hPa 0,0 l/m 0,8 km/h (0 Bft) 0,00 h 1,6 km/h (1 Bft)
10.07.2009 02:00 19,6 C 12,9 C 0,0 UV-I 0,0 C 61 % 89 % 0 % 1012,3 hPa 0,0 l/m 1,4 km/h (1 Bft) 0,00 h 2,3 km/h (1 Bft)
10.07.2009 03:00 19,5 C 12,8 C 0,0 UV-I 0,0 C 60 % 87 % 0 % 1011,9 hPa 0,0 l/m 1,4 km/h (1 Bft) 0,00 h 2,9 km/h (1 Bft)
10.07.2009 04:00 19,3 C 12,4 C 0,0 UV-I 0,0 C 59 % 88 % 0 % 1011,7 hPa 0,0 l/m 1,3 km/h (1 Bft) 0,00 h 2,6 km/h (1 Bft)
10.07.2009 05:00 19,2 C 12,5 C 0,0 UV-I 0,0 C 60 % 89 % 0 % 1011,3 hPa 0,0 l/m 2,0 km/h (1 Bft) 0,00 h 3,8 km/h (1 Bft)
10.07.2009 06:00 19,2 C 12,7 C 0,0 UV-I 0,0 C 60 % 89 % 0 % 1011,2 hPa 0,0 l/m 3,2 km/h (1 Bft) 0,00 h 5,1 km/h (1 Bft)
10.07.2009 07:00 19,0 C 12,9 C 0,3 UV-I 0,0 C 61 % 88 % 0 % 1011,1 hPa 0,0 l/m 2,9 km/h (1 Bft) 0,00 h 3,5 km/h (1 Bft)
10.07.2009 08:00 19,1 C 13,4 C 0,5 UV-I 0,0 C 62 % 88 % 0 % 1011,4 hPa 0,0 l/m 3,2 km/h (1 Bft) 0,00 h 5,2 km/h (1 Bft)
10.07.2009 09:00 19,2 C 13,9 C 1,0 UV-I 0,2 C 62 % 86 % 5 % 1011,8 hPa 0,2 l/m 4,0 km/h (1 Bft) 0,00 h 6,5 km/h (2 Bft)
10.07.2009 10:00 19,3 C 14,2 C 1,6 UV-I 0,2 C 62 % 86 % 5 % 1011,9 hPa 0,0 l/m 4,4 km/h (1 Bft) 0,00 h 7,2 km/h (2 Bft)
10.07.2009 11:00 19,6 C 15,1 C 1,4 UV-I 0,4 C 61 % 81 % 12 % 1012,0 hPa 0,0 l/m 6,5 km/h (2 Bft) 0,00 h 9,6 km/h (2 Bft)
10.07.2009 12:00 19,6 C 14,7 C 0,9 UV-I 0,0 C 61 % 83 % 0 % 1012,2 hPa 2,2 l/m 4,9 km/h (1 Bft) 0,00 h 7,5 km/h (2 Bft)
10.07.2009 13:00 19,5 C 14,1 C 1,8 UV-I 0,0 C 63 % 89 % 0 % 1012,7 hPa 1,2 l/m 5,1 km/h (1 Bft) 0,00 h 8,0 km/h (2 Bft)
10.07.2009 14:00 19,5 C 13,9 C 2,0 UV-I 0,0 C 63 % 90 % 0 % 1012,9 hPa 0,8 l/m 5,6 km/h (1 Bft) 0,00 h 8,6 km/h (2 Bft)
10.07.2009 15:00 19,3 C 13,8 C 1,7 UV-I 0,0 C 64 % 91 % 0 % 1013,4 hPa 0,2 l/m 5,9 km/h (2 Bft) 0,00 h 8,9 km/h (2 Bft)
10.07.2009 16:00 19,5 C 14,7 C 4,1 UV-I 0,3 C 65 % 89 % 7 % 1013,6 hPa 0,0 l/m 6,6 km/h (2 Bft) 0,00 h 13,4 km/h (3 Bft)
10.07.2009 17:00 19,9 C 15,8 C 2,6 UV-I 0,6 C 63 % 83 % 17 % 1013,9 hPa 0,0 l/m 6,4 km/h (2 Bft) 0,00 h 9,9 km/h (2 Bft)
10.07.2009 18:00 20,2 C 16,0 C 1,2 UV-I 0,4 C 61 % 79 % 12 % 1014,5 hPa 0,0 l/m 5,5 km/h (1 Bft) 0,00 h 8,5 km/h (2 Bft)
10.07.2009 19:00 20,1 C 15,1 C 0,5 UV-I 0,0 C 61 % 84 % 0 % 1015,0 hPa 0,0 l/m 2,8 km/h (1 Bft) 0,00 h 4,6 km/h (1 Bft)
10.07.2009 20:00 20,0 C 15,3 C 0,4 UV-I 0,0 C 62 % 82 % 1 % 1015,2 hPa 0,0 l/m 1,9 km/h (1 Bft) 0,00 h 3,4 km/h (1 Bft)
10.07.2009 21:00 20,0 C 14,9 C 0,0 UV-I 0,0 C 61 % 81 % 0 % 1015,2 hPa 0,0 l/m 1,1 km/h (0 Bft) 0,00 h 1,9 km/h (1 Bft)
10.07.2009 22:00 19,8 C 14,7 C 0,0 UV-I 0,0 C 60 % 79 % 0 % 1015,6 hPa 0,0 l/m 2,8 km/h (1 Bft) 0,00 h 4,8 km/h (1 Bft)
10.07.2009 23:00 19,6 C 14,4 C 0,0 UV-I 0,0 C 59 % 79 % 0 % 1015,6 hPa 0,0 l/m 1,7 km/h (1 Bft) 0,00 h 2,1 km/h (1 Bft)
11.07.2009 00:00 19,6 C 14,0 C 0,0 UV-I 0,0 C 60 % 81 % 0 % 1015,5 hPa 0,0 l/m 0,2 km/h (0 Bft) 0,00 h 0,5 km/h (0 Bft)
11.07.2009 01:00 19,4 C 13,7 C 0,0 UV-I 0,0 C 60 % 82 % 0 % 1015,5 hPa 0,0 l/m 0,2 km/h (0 Bft) 0,00 h 0,2 km/h (0 Bft)
11.07.2009 02:00 19,3 C 13,7 C 0,0 UV-I 0,0 C 61 % 85 % 0 % 1015,2 hPa 0,0 l/m 0,0 km/h (0 Bft) 0,00 h 0,1 km/h (0 Bft)
11.07.2009 03:00 19,2 C 13,6 C 0,0 UV-I 0,0 C 62 % 87 % 0 % 1015,0 hPa 0,0 l/m 0,5 km/h (0 Bft) 0,00 h 1,5 km/h (1 Bft)
11.07.2009 04:00 19,0 C 13,7 C 0,0 UV-I 0,0 C 62 % 86 % 0 % 1014,7 hPa 0,0 l/m 1,4 km/h (1 Bft) 0,00 h 3,1 km/h (1 Bft)
11.07.2009 05:00 18,8 C 13,7 C 0,0 UV-I 0,0 C 61 % 84 % 0 % 1014,1 hPa 0,0 l/m 1,7 km/h (1 Bft) 0,00 h 2,7 km/h (1 Bft)
11.07.2009 06:00 18,8 C 13,5 C 0,1 UV-I 0,0 C 61 % 84 % 0 % 1013,7 hPa 0,0 l/m 1,9 km/h (1 Bft) 0,00 h 3,9 km/h (1 Bft)
11.07.2009 07:00 18,8 C 13,8 C 0,6 UV-I 0,4 C 61 % 85 % 10 % 1013,8 hPa 0,0 l/m 3,8 km/h (1 Bft) 0,00 h 7,1 km/h (2 Bft)
11.07.2009 08:00 19,0 C 14,7 C 0,8 UV-I 0,4 C 63 % 85 % 12 % 1014,0 hPa 0,0 l/m 4,2 km/h (1 Bft) 0,00 h 5,5 km/h (1 Bft)
11.07.2009 09:00 19,2 C 15,5 C 2,0 UV-I 1,0 C 64 % 84 % 28 % 1014,2 hPa 0,0 l/m 4,8 km/h (1 Bft) 0,03 h 6,8 km/h (2 Bft)
11.07.2009 10:00 19,5 C 16,5 C 2,6 UV-I 1,6 C 64 % 81 % 45 % 1014,2 hPa 0,0 l/m 4,6 km/h (1 Bft) 0,00 h 6,2 km/h (2 Bft)
11.07.2009 11:00 19,9 C 17,3 C 2,2 UV-I 0,8 C 64 % 78 % 23 % 1014,8 hPa 0,0 l/m 5,2 km/h (1 Bft) 0,00 h 8,9 km/h (2 Bft)
11.07.2009 12:00 20,0 C 16,7 C 1,9 UV-I 0,0 C 64 % 83 % 0 % 1015,0 hPa 0,2 l/m 3,3 km/h (1 Bft) 0,00 h 5,8 km/h (2 Bft)
11.07.2009 13:00 20,2 C 17,5 C 3,1 UV-I 1,0 C 65 % 80 % 30 % 1014,8 hPa 0,0 l/m 3,4 km/h (1 Bft) 0,00 h 6,2 km/h (2 Bft)
11.07.2009 14:00 20,5 C 18,4 C 4,2 UV-I 1,6 C 64 % 77 % 44 % 1014,9 hPa 0,0 l/m 5,0 km/h (1 Bft) 0,00 h 6,8 km/h (2 Bft)
11.07.2009 15:00 20,8 C 18,7 C 3,5 UV-I 1,1 C 64 % 76 % 31 % 1014,7 hPa 0,0 l/m 4,9 km/h (1 Bft) 0,10 h 7,4 km/h (2 Bft)
11.07.2009 16:00 21,4 C 19,7 C 4,8 UV-I 2,6 C 64 % 74 % 70 % 1014,5 hPa 0,0 l/m 6,8 km/h (2 Bft) 0,33 h 11,2 km/h (2 Bft)
11.07.2009 17:00 22,3 C 20,7 C 2,7 UV-I 1,7 C 62 % 71 % 47 % 1014,3 hPa 0,0 l/m 4,9 km/h (1 Bft) 0,22 h 6,9 km/h (2 Bft)
11.07.2009 18:00 22,5 C 20,1 C 2,3 UV-I 1,6 C 61 % 72 % 46 % 1014,3 hPa 0,0 l/m 5,5 km/h (1 Bft) 0,00 h 8,0 km/h (2 Bft)
11.07.2009 19:00 22,8 C 19,4 C 0,9 UV-I 0,2 C 60 % 76 % 5 % 1014,7 hPa 0,0 l/m 3,7 km/h (1 Bft) 0,00 h 5,8 km/h (2 Bft)
11.07.2009 20:00 22,7 C 18,1 C 0,0 UV-I 0,0 C 62 % 83 % 0 % 1014,8 hPa 2,0 l/m 1,3 km/h (1 Bft) 0,00 h 2,7 km/h (1 Bft)
11.07.2009 21:00 21,8 C 17,1 C 0,0 UV-I 0,0 C 64 % 88 % 0 % 1014,7 hPa 0,4 l/m 0,4 km/h (0 Bft) 0,00 h 0,9 km/h (0 Bft)
11.07.2009 22:00 21,2 C 16,6 C 0,0 UV-I 0,0 C 67 % 90 % 0 % 1014,9 hPa 0,0 l/m 0,4 km/h (0 Bft) 0,00 h 0,6 km/h (0 Bft)
11.07.2009 23:00 20,9 C 16,3 C 0,0 UV-I 0,0 C 68 % 91 % 0 % 1014,3 hPa 0,0 l/m 0,4 km/h (0 Bft) 0,00 h 0,7 km/h (0 Bft)
12.07.2009 00:00 20,7 C 16,1 C 0,0 UV-I 0,0 C 69 % 92 % 0 % 1014,0 hPa 0,1 l/m 0,4 km/h (0 Bft) 0,00 h 0,8 km/h (0 Bft)
12.07.2009 01:00 20,6 C 16,0 C 0,0 UV-I 0,0 C 70 % 92 % 0 % 1013,4 hPa 0,0 l/m 0,3 km/h (0 Bft) 0,00 h 0,4 km/h (0 Bft)
12.07.2009 02:00 20,6 C 16,0 C 0,0 UV-I 0,0 C 70 % 93 % 0 % 1012,9 hPa 0,0 l/m 1,3 km/h (1 Bft) 0,00 h 2,2 km/h (1 Bft)
12.07.2009 03:00 20,5 C 15,7 C 0,0 UV-I 0,0 C 70 % 92 % 0 % 1012,4 hPa 0,0 l/m 0,2 km/h (0 Bft) 0,00 h 0,4 km/h (0 Bft)
12.07.2009 04:00 20,4 C 15,2 C 0,0 UV-I 0,0 C 69 % 93 % 0 % 1011,8 hPa 0,0 l/m 0,1 km/h (0 Bft) 0,00 h 0,4 km/h (0 Bft)
12.07.2009 05:00 20,2 C 14,9 C 0,0 UV-I 0,0 C 69 % 92 % 0 % 1011,2 hPa 0,0 l/m 1,5 km/h (1 Bft) 0,00 h 2,8 km/h (1 Bft)
12.07.2009 06:00 20,1 C 14,9 C 0,0 UV-I 0,0 C 69 % 93 % 0 % 1010,9 hPa 0,3 l/m 2,5 km/h (1 Bft) 0,00 h 3,4 km/h (1 Bft)
12.07.2009 07:00 20,0 C 15,1 C 0,1 UV-I 0,0 C 69 % 93 % 0 % 1011,0 hPa 2,1 l/m 1,1 km/h (0 Bft) 0,00 h 2,0 km/h (1 Bft)
12.07.2009 08:00 20,1 C 15,4 C 0,5 UV-I 0,0 C 70 % 94 % 0 % 1010,7 hPa 0,6 l/m 1,3 km/h (1 Bft) 0,00 h 2,0 km/h (1 Bft)
12.07.2009 09:00 20,3 C 16,2 C 1,8 UV-I 0,1 C 71 % 95 % 3 % 1010,6 hPa 0,0 l/m 3,1 km/h (1 Bft) 0,00 h 4,6 km/h (1 Bft)
12.07.2009 10:00 20,6 C 17,3 C 1,9 UV-I 0,1 C 71 % 93 % 3 % 1010,3 hPa 0,1 l/m 1,8 km/h (1 Bft) 0,00 h 3,4 km/h (1 Bft)
12.07.2009 11:00 21,0 C 17,9 C 1,4 UV-I 0,0 C 70 % 92 % 0 % 1010,0 hPa 0,0 l/m 1,1 km/h (1 Bft) 0,00 h 1,6 km/h (1 Bft)
12.07.2009 12:00 21,1 C 18,0 C 1,1 UV-I 0,0 C 70 % 92 % 0 % 1009,7 hPa 0,1 l/m 1,6 km/h (1 Bft) 0,00 h 2,5 km/h (1 Bft)
12.07.2009 13:00 21,2 C 19,0 C 4,6 UV-I 1,4 C 71 % 91 % 39 % 1008,9 hPa 0,0 l/m 4,5 km/h (1 Bft) 0,00 h 7,4 km/h (2 Bft)
12.07.2009 14:00 21,7 C 21,0 C 2,4 UV-I 0,8 C 71 % 83 % 22 % 1008,6 hPa 0,0 l/m 5,1 km/h (1 Bft) 0,00 h 5,5 km/h (1 Bft)
12.07.2009 15:00 21,9 C 20,7 C 0,5 UV-I 0,0 C 71 % 84 % 0 % 1008,4 hPa 0,6 l/m 1,3 km/h (1 Bft) 0,00 h 1,9 km/h (1 Bft)
12.07.2009 16:00 22,0 C 21,3 C 4,1 UV-I 1,8 C 72 % 85 % 49 % 1008,3 hPa 0,0 l/m 1,0 km/h (0 Bft) 0,13 h 2,1 km/h (1 Bft)
12.07.2009 17:00 22,9 C 23,9 C 3,1 UV-I 3,0 C 69 % 70 % 80 % 1007,7 hPa 0,0 l/m 5,9 km/h (2 Bft) 0,57 h 7,7 km/h (2 Bft)
12.07.2009 18:00 23,7 C 23,7 C 2,5 UV-I 2,5 C 66 % 70 % 72 % 1008,6 hPa 0,0 l/m 5,3 km/h (1 Bft) 0,33 h 7,1 km/h (2 Bft)
12.07.2009 19:00 23,5 C 22,7 C 1,5 UV-I 0,1 C 65 % 68 % 4 % 1009,3 hPa 0,0 l/m 5,0 km/h (1 Bft) 0,00 h 8,2 km/h (2 Bft)
12.07.2009 20:00 23,2 C 22,0 C 0,6 UV-I 0,0 C 64 % 65 % 0 % 1009,7 hPa 0,0 l/m 2,8 km/h (1 Bft) 0,00 h 3,4 km/h (1 Bft)
12.07.2009 21:00 22,9 C 20,9 C 0,0 UV-I 0,0 C 64 % 68 % 0 % 1010,2 hPa 0,0 l/m 0,3 km/h (0 Bft) 0,00 h 0,2 km/h (0 Bft)
12.07.2009 22:00 22,5 C 19,2 C 0,0 UV-I 0,0 C 64 % 74 % 0 % 1010,6 hPa 0,0 l/m 0,0 km/h (0 Bft) 0,00 h 0,0 km/h (0 Bft)
12.07.2009 23:00 21,9 C 17,1 C 0,0 UV-I 0,0 C 65 % 81 % 0 % 1010,8 hPa 0,0 l/m 0,0 km/h (0 Bft) 0,00 h 0,0 km/h (0 Bft)
Min-Datum _ 11.07.09 09.07.09 06.07.09 06.07.09 07.07.09 07.07.09 06.07.09 08.07.09 - 06.07.09 - 06.07.09
_ Min-Zeit 05:14 06:28 00:00 00:00 16:08 14:52 00:00 04:18 - 02:00 - 00:04
Minimum _ 18,8 C 11,5 C 0,0 UV-I 0,0 C 44 % 44 % 0 % 1004,6 hPa - 0,0 km/h (0 Bft) - 0,0 km/h (0 Bft)
Max-Datum _ 06.07.09 06.07.09 06.07.09 06.07.09 12.07.09 12.07.09 06.07.09 11.07.09 07.07.09 07.07.09 06.07.09 07.07.09
_ Max-Zeit 17:20 13:48 10:52 10:22 16:02 09:10 09:54 01:18 17:28 12:48 09:52 12:28
Maximum _ 26,8 C 26,3 C 20,4 UV-I 6,3 C 72 % 95 % 100 % 1015,9 hPa 4,1 l/m 11,3 km/h
S-SO (2 Bft)
0,03 h 34,2 km/h
S-SO (5 Bft)
Durchschnitt _ 21,8 C 17,1 C 1,5 UV-I 0,6 C 59 % 78 % 16 % 1010,7 hPa #20,9 l/m 3,0 km/h (1 Bft) #13:03 h 4,7 km/h (1 Bft)
© 2012 W. Hausmann